CheckWX is a tool to help pilots better visualize weather data.  It is not intended as a substitute for an official pre-flight weather briefing.

18:38:29 UTC

KVIS METAR
Visalia Municipal Airport
Visalia, California, USA
Current

42 mins ago

KVIS 171756Z AUTO VRB05KT 10SM SCT026 19/12 A2993 RMK AO2 SLP141 T01940122 10194 20117 50013
Observed
Oct-17 @ 17:56 UTC
Wind
  • Variable at 5 KTS
Visibility
10 SM
Flight Rules
VFR
Cloud Levels
  • Scattered at 2,600' AGL
Temperature
19°C / 66°F
Dewpoint
12°C / 54°F
Humidity
64%
Altimeter
29.93" Hg
Pressure
1013.52 hPa
Previous

2 hours ago

KVIS 171656Z AUTO 02005KT 10SM CLR 17/12 A2993 RMK AO2 SLP143 T01720117
Observed
Oct-17 @ 16:56 UTC
Wind
  • 020° at 5 KTS
Visibility
10 SM
Flight Rules
VFR
Cloud Levels
  • Clear skies
Temperature
17°C / 63°F
Dewpoint
12°C / 54°F
Humidity
73%
Altimeter
29.93" Hg
Pressure
1013.52 hPa
Previous

3 hours ago

KVIS 171556Z AUTO 25003KT 10SM CLR 14/11 A2992 RMK AO2 SLP137 T01440111
Observed
Oct-17 @ 15:56 UTC
Wind
  • 250° at 3 KTS
Visibility
10 SM
Flight Rules
VFR
Cloud Levels
  • Clear skies
Temperature
14°C / 57°F
Dewpoint
11°C / 52°F
Humidity
82%
Altimeter
29.92" Hg
Pressure
1013.22 hPa